Orlando International Airport

KMCO | MCO

Orlando , Florida , United States

Thursday, October 24th, 2019 | 00:57

Weather

KMCO 240453Z 03005KT 10SM FEW070 SCT250 22/18 A3010 RMK AO2 SLP192 T02220178 402940217

Charts

44 Available

Gates

128 Available

Runways

4 Available

Events

No events for this airport


New event